| time (UTC) | temp F | wind direction | speed knots | gust knots | rain 1hr in | rain 24hr in | rain mn in | humidity % | barometer mb |
| 20260906203543 | 101 | 357 | 2.6 | 10.4 | 0.00 | 0.00 | 0.00 | 35 | 1009.0 |
| 20260906203044 | 101 | 150 | 4.3 | 11.3 | 0.00 | 0.00 | 0.00 | 35 | 1009.1 |
| 20260906202539 | 101 | 170 | 0.0 | 6.1 | 0.00 | 0.00 | 0.00 | 36 | 1009.2 |
| 20260906202037 | 100 | 190 | 2.6 | 7.0 | 0.00 | 0.00 | 0.00 | 36 | 1009.2 |
| 20260906201536 | 100 | 134 | 0.0 | 6.1 | 0.00 | 0.00 | 0.00 | 36 | 1009.3 |
| 20260906201034 | 100 | 139 | 0.9 | 9.6 | 0.00 | 0.00 | 0.00 | 37 | 1009.4 |
| 20260906200534 | 100 | 100 | 3.5 | 9.6 | 0.00 | 0.00 | 0.00 | 37 | 1009.6 |
| 20260906200042 | 100 | 140 | 0.9 | 7.0 | 0.00 | 0.00 | 0.00 | 37 | 1009.6 |
| 20260906195535 | 100 | 128 | 2.6 | 7.0 | 0.00 | 0.00 | 0.00 | 37 | 1009.7 |
| 20260906195033 | 100 | 114 | 2.6 | 10.4 | 0.00 | 0.00 | 0.00 | 37 | 1009.8 |
| 20260906194533 | 100 | 357 | 4.3 | 10.4 | 0.00 | 0.00 | 0.00 | 36 | 1009.8 |
| 20260906194033 | 100 | 357 | 4.3 | 7.8 | 0.00 | 0.00 | 0.00 | 37 | 1009.8 |
| 20260906193534 | 100 | 258 | 4.3 | 9.6 | 0.00 | 0.00 | 0.00 | 36 | 1009.9 |
| 20260906193035 | 100 | 357 | 2.6 | 9.6 | 0.00 | 0.00 | 0.00 | 37 | 1009.9 |
| 20260906192530 | 100 | 134 | 3.5 | 7.0 | 0.00 | 0.00 | 0.00 | 38 | 1010.2 |
| 20260906192130 | 100 | 357 | 3.5 | 7.0 | 0.00 | 0.00 | 0.00 | 37 | 1010.2 |
| 20260906191537 | 100 | 357 | 4.3 | 8.7 | 0.00 | 0.00 | 0.00 | 38 | 1010.3 |
| 20260906191027 | 100 | 134 | 5.2 | 8.7 | 0.00 | 0.00 | 0.00 | 38 | 1010.4 |
| 20260906190527 | 100 | 329 | 1.7 | 7.0 | 0.00 | 0.00 | 0.00 | 38 | 1010.4 |
| 20260906190030 | 100 | 357 | 0.9 | 7.0 | 0.00 | 0.00 | 0.00 | 37 | 1010.6 |
| 20260906185529 | 100 | 129 | 3.5 | 7.0 | 0.00 | 0.00 | 0.00 | 38 | 1010.7 |
| 20260906185025 | 99 | 137 | 2.6 | 7.8 | 0.00 | 0.00 | 0.00 | 39 | 1010.7 |
| 20260906184525 | 99 | 203 | 3.5 | 7.8 | 0.00 | 0.00 | 0.00 | 38 | 1010.8 |
| 20260906184026 | 99 | 231 | 3.5 | 10.4 | 0.00 | 0.00 | 0.00 | 38 | 1010.9 |
| 20260906183526 | 99 | 357 | 5.2 | 10.4 | 0.00 | 0.00 | 0.00 | 38 | 1011.0 |
| 20260906183027 | 99 | 127 | 0.9 | 8.7 | 0.00 | 0.00 | 0.00 | 39 | 1011.0 |
| 20260906182526 | 99 | 357 | 4.3 | 9.6 | 0.00 | 0.00 | 0.00 | 39 | 1011.2 |
| 20260906182023 | 99 | 101 | 0.9 | 4.3 | 0.00 | 0.00 | 0.00 | 41 | 1011.2 |
| 20260906181540 | 98 | 197 | 0.9 | 4.3 | 0.00 | 0.00 | 0.00 | 43 | 1011.3 |
| 20260906181022 | 98 | 210 | 1.7 | 7.8 | 0.00 | 0.00 | 0.00 | 40 | 1011.3 |
| 20260906180521 | 98 | 200 | 3.5 | 8.7 | 0.00 | 0.00 | 0.00 | 42 | 1011.4 |
| 20260906180023 | 97 | 357 | 3.5 | 8.7 | 0.00 | 0.00 | 0.00 | 42 | 1011.5 |
| 20260906175518 | 97 | 228 | 0.9 | 4.3 | 0.00 | 0.00 | 0.00 | 42 | 1011.6 |
| 20260906175021 | 97 | 211 | 1.7 | 5.2 | 0.00 | 0.00 | 0.00 | 42 | 1011.7 |
| 20260906174518 | 97 | 163 | 2.6 | 7.0 | 0.00 | 0.00 | 0.00 | 42 | 1011.8 |
| 20260906174016 | 97 | 183 | 1.7 | 7.0 | 0.00 | 0.00 | 0.00 | 44 | 1011.9 |
| 20260906173520 | 97 | 200 | 2.6 | 7.0 | 0.00 | 0.00 | 0.00 | 44 | 1012.0 |
| 20260906173016 | 96 | 102 | 0.9 | 2.6 | 0.00 | 0.00 | 0.00 | 45 | 1012.1 |
| 20260906172515 | 96 | 98 | 0.9 | 3.5 | 0.00 | 0.00 | 0.00 | 45 | 1012.2 |
| 20260906172019 | 95 | 122 | 0.9 | 3.5 | 0.00 | 0.00 | 0.00 | 45 | 1012.3 |
| 20260906171516 | 95 | 121 | 0.9 | 3.5 | 0.00 | 0.00 | 0.00 | 47 | 1012.4 |
| 20260906171015 | 95 | 117 | 0.9 | 6.1 | 0.00 | 0.00 | 0.00 | 46 | 1012.5 |
| 20260906170521 | 95 | 160 | 2.6 | 6.1 | 0.00 | 0.00 | 0.00 | 46 | 1012.6 |
| 20260906170015 | 95 | 193 | 2.6 | 4.3 | 0.00 | 0.00 | 0.00 | 45 | 1012.7 |
| 20260906165514 | 95 | 284 | 1.7 | 4.3 | 0.00 | 0.00 | 0.00 | 45 | 1012.7 |
| 20260906165015 | 96 | 357 | 2.6 | 4.3 | 0.00 | 0.00 | 0.00 | 44 | 1012.7 |
| 20260906164517 | 96 | 239 | 2.6 | 5.2 | 0.00 | 0.00 | 0.00 | 44 | 1012.7 |
| 20260906164014 | 97 | 182 | 2.6 | 7.8 | 0.00 | 0.00 | 0.00 | 43 | 1012.9 |
| 20260906163513 | 97 | 105 | 1.7 | 7.8 | 0.00 | 0.00 | 0.00 | 44 | 1012.9 |
| 20260906163013 | 96 | 60 | 0.0 | 3.5 | 0.00 | 0.00 | 0.00 | 45 | 1012.9 |
| 20260906162511 | 96 | 55 | 1.7 | 5.2 | 0.00 | 0.00 | 0.00 | 45 | 1012.9 |
| 20260906162010 | 95 | 160 | 2.6 | 5.2 | 0.00 | 0.00 | 0.00 | 45 | 1013.0 |
| 20260906161509 | 95 | 159 | 1.7 | 5.2 | 0.00 | 0.00 | 0.00 | 46 | 1012.9 |
| 20260906161007 | 95 | 122 | 0.9 | 3.5 | 0.00 | 0.00 | 0.00 | 47 | 1012.9 |
| 20260906160506 | 95 | 122 | 0.9 | 5.2 | 0.00 | 0.00 | 0.00 | 47 | 1012.9 |
| 20260906160005 | 94 | 114 | 0.9 | 5.2 | 0.00 | 0.00 | 0.00 | 48 | 1012.9 |
| 20260906155503 | 94 | 158 | 1.7 | 3.5 | 0.00 | 0.00 | 0.00 | 50 | 1012.9 |
| 20260906155003 | 93 | 217 | 0.0 | 3.5 | 0.00 | 0.00 | 0.00 | 49 | 1012.9 |
| 20260906154600 | 92 | 217 | 1.7 | 3.5 | 0.00 | 0.00 | 0.00 | 49 | 1012.9 |
| 20260906154507 | 92 | 217 | 1.7 | 3.5 | 0.00 | 0.00 | 0.00 | 49 | 1012.9 |
| 20260906154059 | 92 | 197 | 1.7 | 4.3 | 0.00 | 0.00 | 0.00 | 50 | 1012.9 |
| 20260906153557 | 91 | 160 | 0.0 | 4.3 | 0.00 | 0.00 | 0.00 | 51 | 1012.9 |
| 20260906153058 | 91 | 162 | 3.5 | 5.2 | 0.00 | 0.00 | 0.00 | 51 | 1012.9 |
| 20260906152557 | 91 | 229 | 1.7 | 6.1 | 0.00 | 0.00 | 0.00 | 52 | 1013.0 |
| 20260906152056 | 91 | 242 | 1.7 | 6.1 | 0.00 | 0.00 | 0.00 | 52 | 1012.9 |
| 20260906151558 | 91 | 215 | 0.9 | 3.5 | 0.00 | 0.00 | 0.00 | 53 | 1012.8 |
| 20260906151054 | 90 | 242 | 0.9 | 3.5 | 0.00 | 0.00 | 0.00 | 54 | 1012.9 |
| 20260906150552 | 90 | 239 | 1.7 | 3.5 | 0.00 | 0.00 | 0.00 | 54 | 1012.9 |
| 20260906150051 | 89 | 238 | 0.9 | 3.5 | 0.00 | 0.00 | 0.00 | 55 | 1012.8 |
| 20260906145551 | 89 | 266 | 1.7 | 4.3 | 0.00 | 0.00 | 0.00 | 55 | 1012.9 |
| 20260906145050 | 89 | 262 | 1.7 | 5.2 | 0.00 | 0.00 | 0.00 | 56 | 1013.0 |
| 20260906144607 | 88 | 233 | 1.7 | 5.2 | 0.00 | 0.00 | 0.00 | 56 | 1013.0 |
| 20260906144048 | 88 | 242 | 1.7 | 6.1 | 0.00 | 0.00 | 0.00 | 57 | 1013.1 |
| 20260906143548 | 88 | 229 | 2.6 | 6.1 | 0.00 | 0.00 | 0.00 | 57 | 1013.1 |
| 20260906143047 | 87 | 262 | 1.7 | 6.1 | 0.00 | 0.00 | 0.00 | 58 | 1013.1 |
| 20260906142547 | 87 | 260 | 1.7 | 5.2 | 0.00 | 0.00 | 0.00 | 59 | 1013.1 |
| 20260906142043 | 86 | 247 | 1.7 | 4.3 | 0.00 | 0.00 | 0.00 | 59 | 1013.1 |
| 20260906141542 | 86 | 239 | 1.7 | 4.3 | 0.00 | 0.00 | 0.00 | 60 | 1013.1 |
| 20260906141040 | 86 | 231 | 2.6 | 5.2 | 0.00 | 0.00 | 0.00 | 60 | 1013.0 |
| 20260906140540 | 85 | 195 | 0.9 | 2.6 | 0.00 | 0.00 | 0.00 | 62 | 1013.0 |
| 20260906140041 | 84 | 195 | 0.9 | 5.2 | 0.00 | 0.00 | 0.00 | 62 | 1013.0 |
| 20260906135541 | 84 | 357 | 1.7 | 5.2 | 0.00 | 0.00 | 0.00 | 63 | 1013.0 |
| 20260906135039 | 83 | 225 | 1.7 | 4.3 | 0.00 | 0.00 | 0.00 | 64 | 1013.0 |
| 20260906134538 | 83 | 156 | 1.7 | 4.3 | 0.00 | 0.00 | 0.00 | 64 | 1012.9 |
| 20260906134038 | 82 | 156 | 0.9 | 4.3 | 0.00 | 0.00 | 0.00 | 65 | 1012.9 |
| 20260906133539 | 81 | 98 | 0.9 | 2.6 | 0.00 | 0.00 | 0.00 | 66 | 1012.8 |
| 20260906133039 | 81 | 97 | 0.9 | 2.6 | 0.00 | 0.00 | 0.00 | 67 | 1012.9 |
| 20260906132537 | 80 | 96 | 0.0 | 2.6 | 0.00 | 0.00 | 0.00 | 67 | 1012.8 |
| 20260906132037 | 80 | 94 | 0.0 | 2.6 | 0.00 | 0.00 | 0.00 | 67 | 1012.7 |
| 20260906131539 | 80 | 95 | 0.9 | 2.6 | 0.00 | 0.00 | 0.00 | 67 | 1012.7 |
| 20260906131035 | 79 | 80 | 0.0 | 2.6 | 0.00 | 0.00 | 0.00 | 68 | 1012.6 |
| 20260906130535 | 79 | 155 | 0.0 | 2.6 | 0.00 | 0.00 | 0.00 | 68 | 1012.6 |
| 20260906130038 | 79 | 155 | 0.0 | 0.0 | 0.00 | 0.00 | 0.00 | 68 | 1012.5 |
| 20260906125534 | 78 | 155 | 0.0 | 0.0 | 0.00 | 0.00 | 0.00 | 69 | 1012.5 |
| 20260906125034 | 78 | 155 | 0.0 | 0.0 | 0.00 | 0.00 | 0.00 | 69 | 1012.5 |
| 20260906124538 | 78 | 155 | 0.0 | 0.0 | 0.00 | 0.00 | 0.00 | 69 | 1012.5 |
| 20260906124034 | 78 | 155 | 0.0 | 0.9 | 0.00 | 0.00 | 0.00 | 69 | 1012.4 |
| 20260906123533 | 78 | 155 | 0.0 | 1.7 | 0.00 | 0.00 | 0.00 | 69 | 1012.4 |
| 20260906123035 | 78 | 155 | 0.9 | 1.7 | 0.00 | 0.00 | 0.00 | 69 | 1012.3 |
| 20260906122532 | 78 | 155 | 0.0 | 1.7 | 0.00 | 0.00 | 0.00 | 69 | 1012.2 |
| 20260906122031 | 78 | 155 | 0.0 | 1.7 | 0.00 | 0.00 | 0.00 | 68 | 1012.2 |
| 20260906121531 | 78 | 155 | 0.0 | 1.7 | 0.00 | 0.00 | 0.00 | 68 | 1012.2 |
| 20260906121030 | 78 | 155 | 0.0 | 1.7 | 0.00 | 0.00 | 0.00 | 68 | 1012.1 |
| 20260906120529 | 78 | 155 | 0.0 | 1.7 | 0.00 | 0.00 | 0.00 | 68 | 1012.0 |
| 20260906120029 | 78 | 155 | 0.0 | 2.6 | 0.00 | 0.00 | 0.00 | 68 | 1012.0 |
| 20260906115529 | 78 | 155 | 0.0 | 2.6 | 0.00 | 0.00 | 0.00 | 68 | 1011.9 |
| 20260906115028 | 78 | 155 | 0.9 | 2.6 | 0.00 | 0.00 | 0.00 | 67 | 1011.9 |
| 20260906114544 | 79 | 155 | 0.0 | 1.7 | 0.00 | 0.00 | 0.00 | 67 | 1011.9 |
| 20260906114028 | 79 | 155 | 0.9 | 1.7 | 0.00 | 0.00 | 0.00 | 67 | 1011.9 |
| 20260906113527 | 79 | 155 | 0.9 | 2.6 | 0.00 | 0.00 | 0.00 | 67 | 1011.8 |
| 20260906113029 | 79 | 155 | 0.9 | 2.6 | 0.00 | 0.00 | 0.00 | 67 | 1011.8 |
| 20260906112525 | 78 | 155 | 0.9 | 2.6 | 0.00 | 0.00 | 0.00 | 67 | 1011.7 |
| 20260906112027 | 78 | 155 | 0.9 | 1.7 | 0.00 | 0.00 | 0.00 | 68 | 1011.6 |
| 20260906111532 | 78 | 155 | 0.0 | 0.0 | 0.00 | 0.00 | 0.00 | 68 | 1011.6 |
| 20260906111024 | 78 | 155 | 0.0 | 0.0 | 0.00 | 0.00 | 0.00 | 68 | 1011.5 |
| 20260906110524 | 78 | 155 | 0.0 | 0.0 | 0.00 | 0.00 | 0.00 | 68 | 1011.4 |
| 20260906110024 | 78 | 155 | 0.0 | 0.0 | 0.00 | 0.00 | 0.00 | 68 | 1011.3 |
| 20260906105523 | 78 | 155 | 0.0 | 0.0 | 0.00 | 0.00 | 0.00 | 68 | 1011.4 |
| 20260906105023 | 78 | 155 | 0.0 | 0.9 | 0.00 | 0.00 | 0.00 | 68 | 1011.4 |
| 20260906104531 | 78 | 155 | 0.0 | 0.9 | 0.00 | 0.00 | 0.00 | 68 | 1011.4 |
| 20260906104021 | 79 | 155 | 0.0 | 0.9 | 0.00 | 0.00 | 0.00 | 67 | 1011.3 |
| 20260906103520 | 79 | 155 | 0.0 | 0.9 | 0.00 | 0.00 | 0.00 | 67 | 1011.3 |
| 20260906103020 | 79 | 155 | 0.0 | 0.9 | 0.00 | 0.00 | 0.00 | 67 | 1011.2 |
| 20260906102519 | 79 | 155 | 0.0 | 1.7 | 0.00 | 0.00 | 0.00 | 67 | 1011.2 |
| 20260906102021 | 79 | 155 | 0.0 | 1.7 | 0.00 | 0.00 | 0.00 | 67 | 1011.2 |
| 20260906101517 | 79 | 155 | 0.0 | 0.9 | 0.00 | 0.00 | 0.00 | 66 | 1011.2 |
| 20260906101017 | 80 | 155 | 0.0 | 1.7 | 0.00 | 0.00 | 0.00 | 66 | 1011.2 |
| 20260906100516 | 80 | 155 | 0.0 | 2.6 | 0.00 | 0.00 | 0.00 | 66 | 1011.2 |
| 20260906100017 | 80 | 155 | 0.0 | 2.6 | 0.00 | 0.00 | 0.00 | 66 | 1011.2 |
| 20260906095520 | 80 | 155 | 0.9 | 2.6 | 0.00 | 0.00 | 0.00 | 66 | 1011.3 |
| 20260906095016 | 80 | 155 | 0.9 | 2.6 | 0.00 | 0.00 | 0.00 | 66 | 1011.2 |
| 20260906094538 | 80 | 155 | 0.9 | 2.6 | 0.00 | 0.00 | 0.00 | 66 | 1011.2 |
| 20260906094016 | 80 | 155 | 0.9 | 2.6 | 0.00 | 0.00 | 0.00 | 66 | 1011.1 |
| 20260906093516 | 80 | 166 | 1.7 | 3.5 | 0.00 | 0.00 | 0.00 | 66 | 1011.2 |
| 20260906093036 | 80 | 167 | 1.7 | 3.5 | 0.00 | 0.00 | 0.00 | 66 | 1011.1 |
| 20260906092517 | 80 | 166 | 0.9 | 1.7 | 0.00 | 0.00 | 0.00 | 66 | 1011.3 |
| 20260906092018 | 80 | 166 | 0.0 | 2.6 | 0.00 | 0.00 | 0.00 | 66 | 1011.2 |
| 20260906091517 | 80 | 166 | 0.0 | 2.6 | 0.00 | 0.00 | 0.00 | 67 | 1011.3 |
| 20260906091015 | 80 | 167 | 0.0 | 3.5 | 0.00 | 0.00 | 0.00 | 66 | 1011.4 |
| 20260906090515 | 80 | 174 | 0.0 | 3.5 | 0.00 | 0.00 | 0.00 | 65 | 1011.3 |
| 20260906090024 | 80 | 176 | 0.0 | 0.0 | 0.00 | 0.00 | 0.00 | 64 | 1011.2 |
| 20260906085512 | 80 | 176 | 0.0 | 0.0 | 0.00 | 0.00 | 0.00 | 64 | 1011.3 |
| 20260906085012 | 80 | 176 | 0.0 | 0.0 | 0.00 | 0.00 | 0.00 | 64 | 1011.2 |
| 20260906084517 | 80 | 176 | 0.0 | 0.0 | 0.00 | 0.00 | 0.00 | 63 | 1011.3 |
| 20260906084013 | 80 | 176 | 0.0 | 0.0 | 0.00 | 0.00 | 0.00 | 63 | 1011.1 |
| 20260906083512 | 80 | 176 | 0.0 | 0.0 | 0.00 | 0.00 | 0.00 | 63 | 1011.0 |
| 20260906083011 | 80 | 176 | 0.0 | 0.0 | 0.00 | 0.00 | 0.00 | 63 | 1011.1 |
| 20260906082511 | 80 | 176 | 0.0 | 0.9 | 0.00 | 0.00 | 0.00 | 63 | 1011.2 |
| 20260906082013 | 80 | 176 | 0.0 | 2.6 | 0.00 | 0.00 | 0.00 | 63 | 1011.1 |
| 20260906081514 | 80 | 176 | 0.9 | 2.6 | 0.00 | 0.00 | 0.00 | 64 | 1011.1 |
| 20260906081011 | 80 | 176 | 0.0 | 0.0 | 0.00 | 0.00 | 0.00 | 64 | 1011.1 |
| 20260906080510 | 80 | 176 | 0.0 | 0.0 | 0.00 | 0.00 | 0.00 | 64 | 1011.3 |
| 20260906080010 | 80 | 176 | 0.0 | 0.0 | 0.00 | 0.00 | 0.00 | 64 | 1011.1 |
| 20260906075509 | 80 | 176 | 0.0 | 0.0 | 0.00 | 0.00 | 0.00 | 64 | 1011.1 |
| 20260906075009 | 80 | 176 | 0.0 | 0.0 | 0.00 | 0.00 | 0.00 | 64 | 1011.2 |
| 20260906074508 | 80 | 176 | 0.0 | 0.0 | 0.00 | 0.00 | 0.00 | 64 | 1011.1 |
| 20260906074007 | 80 | 176 | 0.0 | 0.0 | 0.00 | 0.00 | 0.00 | 64 | 1011.0 |
| 20260906073506 | 80 | 176 | 0.0 | 0.0 | 0.00 | 0.00 | 0.00 | 63 | 1011.0 |
| 20260906073010 | 80 | 176 | 0.0 | 0.0 | 0.00 | 0.00 | 0.00 | 63 | 1011.0 |
| 20260906072506 | 80 | 176 | 0.0 | 0.0 | 0.00 | 0.00 | 0.00 | 63 | 1011.0 |
| 20260906072006 | 81 | 176 | 0.0 | 0.0 | 0.00 | 0.00 | 0.00 | 62 | 1011.1 |
| 20260906071505 | 81 | 176 | 0.0 | 0.0 | 0.00 | 0.00 | 0.00 | 62 | 1011.1 |
| 20260906071004 | 81 | 176 | 0.0 | 0.0 | 0.00 | 0.00 | 0.00 | 61 | 1011.2 |
| 20260906070503 | 81 | 176 | 0.0 | 0.0 | 0.00 | 0.00 | 0.00 | 61 | 1011.1 |
| 20260906070002 | 81 | 176 | 0.0 | 0.0 | 0.00 | 0.00 | 0.00 | 61 | 1011.2 |
| 20260906065501 | 82 | 176 | 0.0 | 0.0 | 0.00 | 0.00 | 0.00 | 60 | 1011.1 |
| 20260906065002 | 82 | 176 | 0.0 | 0.0 | 0.00 | 0.00 | 0.00 | 60 | 1011.1 |
| 20260906064600 | 82 | 176 | 0.0 | 0.0 | 0.00 | 0.00 | 0.00 | 60 | 1011.0 |
| 20260906064100 | 82 | 176 | 0.0 | 0.0 | 0.00 | 0.00 | 0.00 | 59 | 1011.1 |
| 20260906063558 | 83 | 176 | 0.0 | 0.0 | 0.00 | 0.00 | 0.00 | 58 | 1011.0 |
| 20260906063057 | 83 | 176 | 0.0 | 0.0 | 0.00 | 0.00 | 0.00 | 58 | 1011.0 |
| 20260906062556 | 83 | 176 | 0.0 | 0.0 | 0.00 | 0.00 | 0.00 | 58 | 1010.9 |
| 20260906062101 | 83 | 176 | 0.0 | 0.0 | 0.00 | 0.00 | 0.00 | 57 | 1011.0 |
| 20260906061602 | 84 | 176 | 0.0 | 0.0 | 0.00 | 0.00 | 0.00 | 57 | 1011.0 |
| 20260906061054 | 84 | 176 | 0.0 | 0.0 | 0.00 | 0.00 | 0.00 | 57 | 1011.1 |
| 20260906060553 | 84 | 176 | 0.0 | 0.0 | 0.00 | 0.00 | 0.00 | 56 | 1011.1 |
| 20260906060053 | 84 | 176 | 0.0 | 0.0 | 0.00 | 0.00 | 0.00 | 56 | 1011.0 |
| 20260906055551 | 85 | 176 | 0.0 | 0.0 | 0.00 | 0.00 | 0.00 | 55 | 1011.2 |
| 20260906055050 | 85 | 176 | 0.0 | 0.0 | 0.00 | 0.00 | 0.00 | 55 | 1011.0 |
| 20260906054551 | 85 | 176 | 0.0 | 1.7 | 0.00 | 0.00 | 0.00 | 54 | 1011.0 |
| 20260906054052 | 85 | 176 | 0.0 | 1.7 | 0.00 | 0.00 | 0.00 | 54 | 1010.9 |
| 20260906053548 | 85 | 176 | 0.0 | 1.7 | 0.00 | 0.00 | 0.00 | 54 | 1010.9 |
| 20260906053048 | 86 | 176 | 0.0 | 1.7 | 0.00 | 0.00 | 0.00 | 54 | 1010.7 |
| 20260906052547 | 86 | 176 | 0.0 | 2.6 | 0.00 | 0.00 | 0.00 | 54 | 1010.7 |
| 20260906052049 | 86 | 176 | 0.9 | 2.6 | 0.00 | 0.00 | 0.00 | 53 | 1010.7 |
| 20260906051558 | 86 | 176 | 0.9 | 3.5 | 0.00 | 0.00 | 0.00 | 53 | 1010.8 |
| 20260906051045 | 86 | 176 | 0.9 | 4.3 | 0.00 | 0.00 | 0.00 | 53 | 1010.6 |
| 20260906050543 | 86 | 176 | 0.9 | 4.3 | 0.00 | 0.00 | 0.00 | 53 | 1010.5 |
| 20260906050043 | 86 | 152 | 0.9 | 4.3 | 0.00 | 0.00 | 0.00 | 53 | 1010.5 |
| 20260906045543 | 86 | 153 | 0.0 | 0.0 | 0.00 | 0.00 | 0.00 | 53 | 1010.5 |
| 20260906045044 | 86 | 153 | 0.0 | 0.0 | 0.00 | 0.00 | 0.00 | 53 | 1010.5 |
| 20260906044551 | 86 | 152 | 0.0 | 0.0 | 0.00 | 0.00 | 0.00 | 53 | 1010.6 |
| 20260906044042 | 86 | 153 | 0.0 | 0.0 | 0.00 | 0.00 | 0.00 | 53 | 1010.6 |
| 20260906043542 | 86 | 154 | 0.0 | 0.0 | 0.00 | 0.00 | 0.00 | 52 | 1010.7 |
| 20260906043042 | 87 | 153 | 0.0 | 0.9 | 0.00 | 0.00 | 0.00 | 52 | 1010.6 |
| 20260906042541 | 87 | 153 | 0.0 | 2.6 | 0.00 | 0.00 | 0.00 | 52 | 1010.5 |
| 20260906042041 | 87 | 152 | 0.0 | 2.6 | 0.00 | 0.00 | 0.00 | 52 | 1010.5 |
| 20260906041542 | 87 | 357 | 0.0 | 0.0 | 0.00 | 0.00 | 0.00 | 52 | 1010.6 |
| 20260906041040 | 87 | 152 | 0.0 | 0.0 | 0.00 | 0.00 | 0.00 | 52 | 1010.6 |
| 20260906040541 | 87 | 152 | 0.0 | 0.0 | 0.00 | 0.00 | 0.00 | 51 | 1010.6 |
| 20260906040041 | 87 | 152 | 0.0 | 0.0 | 0.00 | 0.00 | 0.00 | 51 | 1010.7 |
| 20260906035543 | 88 | 152 | 0.0 | 0.0 | 0.00 | 0.00 | 0.00 | 51 | 1010.7 |
| 20260906035040 | 88 | 152 | 0.0 | 0.0 | 0.00 | 0.00 | 0.00 | 51 | 1010.7 |
| 20260906034541 | 88 | 152 | 0.0 | 0.0 | 0.00 | 0.00 | 0.00 | 50 | 1010.6 |
| 20260906034040 | 88 | 152 | 0.0 | 1.7 | 0.00 | 0.00 | 0.00 | 50 | 1010.5 |
| 20260906033541 | 88 | 152 | 0.0 | 1.7 | 0.00 | 0.00 | 0.00 | 50 | 1010.5 |
| 20260906033045 | 89 | 153 | 0.9 | 1.7 | 0.00 | 0.00 | 0.00 | 49 | 1010.5 |
| 20260906032539 | 89 | 152 | 0.0 | 2.6 | 0.00 | 0.00 | 0.00 | 49 | 1010.5 |
| 20260906032038 | 89 | 152 | 0.9 | 2.6 | 0.00 | 0.00 | 0.00 | 49 | 1010.5 |
| 20260906031540 | 89 | 154 | 0.9 | 2.6 | 0.00 | 0.00 | 0.00 | 49 | 1010.4 |
| 20260906031041 | 89 | 153 | 0.0 | 2.6 | 0.00 | 0.00 | 0.00 | 49 | 1010.4 |
| 20260906030538 | 89 | 152 | 0.9 | 4.3 | 0.00 | 0.00 | 0.00 | 48 | 1010.4 |
| 20260906030038 | 89 | 141 | 0.9 | 2.6 | 0.00 | 0.00 | 0.00 | 48 | 1010.4 |
| 20260906025536 | 89 | 143 | 0.9 | 2.6 | 0.00 | 0.00 | 0.00 | 48 | 1010.3 |
| 20260906025036 | 89 | 142 | 0.9 | 2.6 | 0.00 | 0.00 | 0.00 | 48 | 1010.2 |
| 20260906024546 | 90 | 142 | 0.0 | 2.6 | 0.00 | 0.00 | 0.00 | 48 | 1010.2 |
| 20260906024036 | 90 | 143 | 0.0 | 1.7 | 0.00 | 0.00 | 0.00 | 48 | 1010.1 |
| 20260906023537 | 90 | 143 | 0.0 | 2.6 | 0.00 | 0.00 | 0.00 | 47 | 1010.0 |
| 20260906023036 | 90 | 143 | 0.9 | 2.6 | 0.00 | 0.00 | 0.00 | 47 | 1009.9 |
| 20260906022536 | 90 | 137 | 0.0 | 1.7 | 0.00 | 0.00 | 0.00 | 47 | 1009.8 |
| 20260906022037 | 91 | 138 | 0.0 | 2.6 | 0.00 | 0.00 | 0.00 | 47 | 1009.7 |
| 20260906021536 | 91 | 138 | 0.9 | 2.6 | 0.00 | 0.00 | 0.00 | 46 | 1009.7 |
| 20260906021035 | 91 | 137 | 0.0 | 1.7 | 0.00 | 0.00 | 0.00 | 46 | 1009.7 |
| 20260906020535 | 91 | 137 | 0.0 | 1.7 | 0.00 | 0.00 | 0.00 | 46 | 1009.6 |
| 20260906020034 | 92 | 137 | 0.0 | 1.7 | 0.00 | 0.00 | 0.00 | 45 | 1009.5 |
| 20260906015534 | 92 | 138 | 0.0 | 1.7 | 0.00 | 0.00 | 0.00 | 45 | 1009.5 |
| 20260906015034 | 92 | 137 | 0.0 | 3.5 | 0.00 | 0.00 | 0.00 | 44 | 1009.4 |
| 20260906014549 | 92 | 138 | 0.9 | 3.5 | 0.00 | 0.00 | 0.00 | 44 | 1009.3 |
| 20260906014034 | 92 | 138 | 1.7 | 3.5 | 0.00 | 0.00 | 0.00 | 44 | 1009.2 |
| 20260906013534 | 92 | 136 | 0.0 | 3.5 | 0.00 | 0.00 | 0.00 | 45 | 1009.1 |
| 20260906013043 | 93 | 135 | 0.0 | 2.6 | 0.00 | 0.00 | 0.00 | 44 | 1009.0 |
| 20260906012533 | 93 | 134 | 0.0 | 2.6 | 0.00 | 0.00 | 0.00 | 44 | 1008.9 |
| 20260906012038 | 93 | 134 | 0.9 | 2.6 | 0.00 | 0.00 | 0.00 | 43 | 1008.9 |
| 20260906011538 | 94 | 133 | 0.0 | 1.7 | 0.00 | 0.00 | 0.00 | 43 | 1008.8 |
| 20260906011034 | 94 | 134 | 0.9 | 2.6 | 0.00 | 0.00 | 0.00 | 42 | 1008.8 |
| 20260906010534 | 94 | 134 | 0.9 | 3.5 | 0.00 | 0.00 | 0.00 | 42 | 1008.8 |
| 20260906010033 | 94 | 135 | 0.9 | 3.5 | 0.00 | 0.00 | 0.00 | 42 | 1008.8 |
| 20260906005532 | 95 | 168 | 0.9 | 3.5 | 0.00 | 0.00 | 0.00 | 42 | 1008.8 |
| 20260906005036 | 95 | 172 | 0.9 | 4.3 | 0.00 | 0.00 | 0.00 | 41 | 1008.7 |
| 20260906004534 | 95 | 147 | 1.7 | 5.2 | 0.00 | 0.00 | 0.00 | 41 | 1008.7 |
| 20260906004036 | 96 | 154 | 1.7 | 5.2 | 0.00 | 0.00 | 0.00 | 41 | 1008.7 |
| 20260906003532 | 96 | 161 | 1.7 | 5.2 | 0.00 | 0.00 | 0.00 | 40 | 1008.6 |
| 20260906003032 | 96 | 139 | 2.6 | 7.0 | 0.00 | 0.00 | 0.00 | 40 | 1008.6 |
| 20260906002531 | 96 | 128 | 2.6 | 7.0 | 0.00 | 0.00 | 0.00 | 40 | 1008.6 |
| 20260906002032 | 96 | 103 | 2.6 | 7.0 | 0.00 | 0.00 | 0.00 | 40 | 1008.6 |
| 20260906001532 | 96 | 142 | 1.7 | 4.3 | 0.00 | 0.00 | 0.00 | 40 | 1008.6 |
| 20260906001031 | 97 | 198 | 2.6 | 10.4 | 0.00 | 0.00 | 0.00 | 40 | 1008.6 |
| 20260906000531 | 97 | 123 | 2.6 | 10.4 | 0.00 | 0.00 | 0.00 | 39 | 1008.5 |
| 20260906000032 | 98 | 178 | 2.6 | 5.2 | 0.00 | 0.00 | 0.00 | 38 | 1008.5 |
| 20260905235530 | 98 | 126 | 2.6 | 7.0 | 0.00 | 0.00 | 0.00 | 38 | 1008.3 |
| 20260905235031 | 98 | 156 | 1.7 | 7.0 | 0.00 | 0.00 | 0.00 | 38 | 1008.3 |
| 20260905234535 | 98 | 125 | 1.7 | 8.7 | 0.00 | 0.00 | 0.00 | 38 | 1008.4 |
| 20260905234030 | 98 | 180 | 3.5 | 9.6 | 0.00 | 0.00 | 0.00 | 38 | 1008.4 |
| 20260905233533 | 98 | 188 | 3.5 | 9.6 | 0.00 | 0.00 | 0.00 | 38 | 1008.2 |
| 20260905233031 | 98 | 116 | 4.3 | 7.8 | 0.00 | 0.00 | 0.00 | 37 | 1008.1 |
| 20260905232533 | 98 | 184 | 2.6 | 7.0 | 0.00 | 0.00 | 0.00 | 37 | 1008.1 |
| 20260905232030 | 99 | 134 | 3.5 | 7.0 | 0.00 | 0.00 | 0.00 | 37 | 1008.1 |
| 20260905231530 | 99 | 168 | 3.5 | 8.7 | 0.00 | 0.00 | 0.00 | 37 | 1008.0 |
| 20260905231030 | 99 | 357 | 3.5 | 7.8 | 0.00 | 0.00 | 0.00 | 37 | 1007.9 |
| 20260905230529 | 99 | 357 | 1.7 | 5.2 | 0.00 | 0.00 | 0.00 | 36 | 1007.9 |
| 20260905230031 | 99 | 177 | 0.9 | 7.8 | 0.00 | 0.00 | 0.00 | 36 | 1008.0 |
| 20260905225528 | 99 | 154 | 2.6 | 6.1 | 0.00 | 0.00 | 0.00 | 36 | 1008.0 |
| 20260905225028 | 99 | 357 | 2.6 | 7.0 | 0.00 | 0.00 | 0.00 | 37 | 1007.9 |
| 20260905224527 | 99 | 119 | 1.7 | 7.0 | 0.00 | 0.00 | 0.00 | 37 | 1007.7 |
| 20260905224027 | 99 | 179 | 2.6 | 7.0 | 0.00 | 0.00 | 0.00 | 37 | 1007.8 |
| 20260905223527 | 99 | 170 | 2.6 | 7.0 | 0.00 | 0.00 | 0.00 | 37 | 1007.8 |
| 20260905223027 | 99 | 125 | 1.7 | 8.7 | 0.00 | 0.00 | 0.00 | 37 | 1007.7 |
| 20260905222526 | 99 | 171 | 4.3 | 8.7 | 0.00 | 0.00 | 0.00 | 37 | 1007.7 |
| 20260905222025 | 99 | 357 | 2.6 | 6.1 | 0.00 | 0.00 | 0.00 | 37 | 1007.8 |
| 20260905221526 | 99 | 176 | 3.5 | 7.8 | 0.00 | 0.00 | 0.00 | 36 | 1007.9 |
| 20260905221024 | 99 | 183 | 3.5 | 7.0 | 0.00 | 0.00 | 0.00 | 36 | 1008.0 |
| 20260905220521 | 99 | 161 | 3.5 | 7.8 | 0.00 | 0.00 | 0.00 | 37 | 1008.1 |
| 20260905220022 | 99 | 146 | 3.5 | 9.6 | 0.00 | 0.00 | 0.00 | 37 | 1008.0 |
| 20260905215520 | 99 | 156 | 4.3 | 9.6 | 0.00 | 0.00 | 0.00 | 36 | 1008.1 |
| 20260905215020 | 99 | 357 | 3.5 | 9.6 | 0.00 | 0.00 | 0.00 | 37 | 1008.2 |
| 20260905214524 | 98 | 122 | 2.6 | 7.0 | 0.00 | 0.00 | 0.00 | 37 | 1008.2 |
| 20260905214019 | 98 | 145 | 0.9 | 6.1 | 0.00 | 0.00 | 0.00 | 37 | 1008.3 |
| 20260905213519 | 98 | 147 | 3.5 | 9.6 | 0.00 | 0.00 | 0.00 | 37 | 1008.4 |
| 20260905213020 | 99 | 147 | 3.5 | 9.6 | 0.00 | 0.00 | 0.00 | 37 | 1008.6 |
| 20260905212517 | 99 | 130 | 2.6 | 7.8 | 0.00 | 0.00 | 0.00 | 37 | 1008.5 |
| 20260905212017 | 99 | 179 | 3.5 | 7.8 | 0.00 | 0.00 | 0.00 | 37 | 1008.5 |
| 20260905211529 | 99 | 120 | 4.3 | 7.8 | 0.00 | 0.00 | 0.00 | 37 | 1008.7 |
| 20260905211017 | 99 | 177 | 4.3 | 10.4 | 0.00 | 0.00 | 0.00 | 37 | 1008.7 |
| 20260905210515 | 99 | 204 | 1.7 | 10.4 | 0.00 | 0.00 | 0.00 | 38 | 1008.7 |
| 20260905210018 | 99 | 144 | 3.5 | 10.4 | 0.00 | 0.00 | 0.00 | 38 | 1008.9 |
| 20260905205513 | 98 | 204 | 4.3 | 10.4 | 0.00 | 0.00 | 0.00 | 38 | 1008.9 |
| 20260905205013 | 98 | 157 | 4.3 | 9.6 | 0.00 | 0.00 | 0.00 | 37 | 1008.9 |
| 20260905204520 | 98 | 125 | 3.5 | 8.7 | 0.00 | 0.00 | 0.00 | 38 | 1009.0 |